Time;durP1;ratioP1;P1;durP2;ratioP2;P2;SDS_P1;SDS_P2;PMS_P1;PMS_P2;Temp;Humidity;BMP_temperature;BMP_pressure;BME280_temperature;BME280_humidity;BME280_pressure;Samples;Min_cycle;Max_cycle;Signal;HPM_P1;HPM_P2
2021/07/15 00:01:12;;;;;;;20.08;11.82;;;;;;;23.33;62.06;99153.00;5033124;28;20037;-68
2021/07/15 00:03:38;;;;;;;19.70;12.30;;;;;;;23.26;62.10;99145.88;5033001;28;20049;-67
2021/07/15 00:06:04;;;;;;;21.83;12.30;;;;;;;23.35;61.87;99153.56;5049379;28;20045;-67
2021/07/15 00:08:30;;;;;;;29.63;12.77;;;;;;;23.33;62.13;99148.41;5050976;28;20128;-67
2021/07/15 00:11:01;;;;;;;22.02;11.85;;;;;;;23.22;62.03;99128.47;5049636;28;20215;-67
2021/07/15 00:13:27;;;;;;;18.25;11.35;;;;;;;23.36;61.71;99142.47;5050360;28;20052;-67
2021/07/15 00:15:55;;;;;;;25.17;12.02;;;;;;;23.37;61.77;99146.00;5034035;28;20528;-67
2021/07/15 00:18:30;;;;;;;26.48;13.10;;;;;;;23.21;62.03;99129.53;5054451;28;20106;-67
2021/07/15 00:20:59;;;;;;;22.27;13.13;;;;;;;23.16;61.86;99125.94;5054653;28;20040;-67
2021/07/15 00:23:25;;;;;;;30.08;15.70;;;;;;;23.17;62.38;99138.44;5036308;28;20055;-67
2021/07/15 00:25:51;;;;;;;31.33;22.60;;;;;;;23.04;62.55;99128.78;5054198;28;20049;-67
2021/07/15 00:28:19;;;;;;;46.08;30.17;;;;;;;23.09;62.52;99136.16;5054114;28;20043;-67
2021/07/15 00:30:46;;;;;;;28.42;19.20;;;;;;;22.99;62.82;99122.44;5054408;28;20045;-67
2021/07/15 00:33:12;;;;;;;28.92;17.27;;;;;;;23.05;62.76;99133.09;5020088;28;20045;-67
2021/07/15 00:35:38;;;;;;;30.08;15.48;;;;;;;23.02;63.21;99122.78;5054165;28;20041;-67
2021/07/15 00:38:05;;;;;;;27.98;13.65;;;;;;;22.99;62.96;99125.97;5053015;28;20059;-67
2021/07/15 00:40:31;;;;;;;29.15;13.13;;;;;;;22.99;63.29;99125.97;5052795;28;20048;-67
2021/07/15 00:42:57;;;;;;;22.17;13.20;;;;;;;23.05;62.90;99122.28;5053996;28;20041;-67
2021/07/15 00:45:23;;;;;;;28.38;18.30;;;;;;;23.12;62.80;99116.69;5052730;28;20072;-67
2021/07/15 00:47:49;;;;;;;24.17;13.93;;;;;;;23.20;62.30;99122.47;5052691;28;20033;-67
2021/07/15 00:50:21;;;;;;;27.20;13.35;;;;;;;23.26;62.29;99109.84;5036064;28;20037;-68
2021/07/15 00:52:49;;;;;;;36.75;13.35;;;;;;;23.33;62.19;99117.75;5052906;28;20048;-68
2021/07/15 00:55:22;;;;;;;28.75;13.32;;;;;;;23.36;61.95;99120.00;5036160;28;20045;-68
2021/07/15 00:57:49;;;;;;;18.50;11.68;;;;;;;23.37;61.78;99108.06;5053789;28;20041;-68
2021/07/15 01:00:15;;;;;;;22.08;11.75;;;;;;;23.37;61.65;99110.78;5053939;28;20041;-68
2021/07/15 01:02:41;;;;;;;22.38;13.30;;;;;;;23.35;62.01;99115.63;5036095;28;20059;-68
2021/07/15 01:05:16;;;;;;;24.00;11.98;;;;;;;23.35;62.05;99113.75;5035782;28;20493;-68
2021/07/15 01:07:42;;;;;;;26.30;13.02;;;;;;;23.31;62.14;99101.75;5054198;28;20039;-67
2021/07/15 01:10:09;;;;;;;27.00;13.52;;;;;;;23.32;62.43;99108.00;5053609;28;20041;-68
2021/07/15 01:12:34;;;;;;;37.22;13.50;;;;;;;23.33;62.76;99120.47;5052259;28;20478;-68
2021/07/15 01:15:13;;;;;;;31.75;13.25;;;;;;;23.27;63.32;99120.44;5053634;28;20140;-68
2021/07/15 01:18:09;;;;;;;27.15;12.55;;;;;;;23.20;63.55;99111.63;5053545;28;20556;-68
2021/07/15 01:20:54;;;;;;;22.30;13.13;;;;;;;23.15;63.45;99110.75;5052087;28;20053;-68
2021/07/15 01:23:57;;;;;;;25.23;14.60;;;;;;;23.10;63.62;99106.09;5035463;28;20067;-67
2021/07/15 01:27:00;;;;;;;38.30;17.27;;;;;;;23.02;63.79;99109.22;5053318;28;20049;-68
2021/07/15 01:29:54;;;;;;;48.38;16.80;;;;;;;22.86;64.53;99112.78;5053041;28;20056;-68
2021/07/15 01:32:22;;;;;;;48.55;16.52;;;;;;;22.72;64.03;99079.03;5052961;28;20041;-68
2021/07/15 01:34:50;;;;;;;44.05;16.70;;;;;;;22.84;64.34;99098.69;5052180;28;20041;-68
2021/07/15 01:37:16;;;;;;;96.32;20.70;;;;;;;22.84;64.12;99096.00;5052060;28;20061;-68
2021/07/15 01:39:43;;;;;;;63.45;18.10;;;;;;;22.83;64.02;99101.66;5035325;28;20079;-68
2021/07/15 01:42:11;;;;;;;65.20;18.20;;;;;;;22.82;64.37;99100.00;5035229;28;20040;-68
2021/07/15 01:44:37;;;;;;;48.30;16.65;;;;;;;22.82;64.49;99098.13;5051892;28;20412;-67
2021/07/15 01:47:03;;;;;;;51.75;17.15;;;;;;;22.83;64.27;99102.44;5051787;28;20090;-67
2021/07/15 01:49:29;;;;;;;52.60;16.05;;;;;;;22.87;64.42;99105.50;5051524;28;20528;-67
2021/07/15 01:51:56;;;;;;;43.33;14.35;;;;;;;22.76;64.03;99087.47;5051576;28;20045;-67
2021/07/15 01:54:22;;;;;;;40.75;15.13;;;;;;;22.84;64.35;99109.53;5034951;28;20041;-68
2021/07/15 01:56:49;;;;;;;39.17;15.20;;;;;;;22.86;64.09;99112.78;5052814;28;20420;-68
2021/07/15 01:59:23;;;;;;;35.20;14.75;;;;;;;22.83;64.30;99110.56;5052643;28;20183;-67
2021/07/15 02:01:50;;;;;;;34.17;13.70;;;;;;;22.88;64.07;99110.66;5034919;28;20049;-68
2021/07/15 02:04:16;;;;;;;33.42;15.70;;;;;;;22.91;64.47;99098.53;5018547;28;20515;-68
2021/07/15 02:06:42;;;;;;;36.50;14.32;;;;;;;22.92;64.18;99097.44;5051406;28;20041;-67
2021/07/15 02:09:10;;;;;;;26.50;14.13;;;;;;;22.94;63.77;99096.09;5034674;28;20457;-67
2021/07/15 02:11:36;;;;;;;32.35;15.27;;;;;;;22.95;64.17;99089.66;5052279;28;20045;-68
2021/07/15 02:14:11;;;;;;;32.70;15.55;;;;;;;23.00;64.70;99094.31;5051371;28;20041;-67
2021/07/15 02:16:40;;;;;;;33.03;15.32;;;;;;;23.01;64.26;99094.06;5051102;28;20103;-67
2021/07/15 02:19:07;;;;;;;49.45;15.35;;;;;;;22.92;64.41;99084.72;5052322;28;20041;-67
2021/07/15 02:21:35;;;;;;;38.13;15.07;;;;;;;23.02;64.41;99106.53;5034229;28;20444;-67
2021/07/15 02:24:03;;;;;;;32.33;14.90;;;;;;;23.02;64.37;99109.22;5034312;28;20052;-67
2021/07/15 02:26:29;;;;;;;35.17;14.80;;;;;;;23.01;64.30;99106.78;5050376;28;20505;-67
2021/07/15 02:28:55;;;;;;;33.38;14.52;;;;;;;23.02;64.34;99111.94;5052066;28;20099;-67
2021/07/15 02:31:31;;;;;;;31.88;15.43;;;;;;;23.01;64.06;99102.19;5050601;28;20064;-68
2021/07/15 02:33:59;;;;;;;42.30;15.75;;;;;;;23.13;64.07;99107.47;5050973;28;20138;-68
2021/07/15 02:36:26;;;;;;;41.67;16.42;;;;;;;23.12;64.14;99098.53;5033909;28;20393;-68
2021/07/15 02:38:53;;;;;;;37.38;17.15;;;;;;;23.19;64.21;99101.88;5017556;28;20041;-68
2021/07/15 02:41:19;;;;;;;39.20;16.27;;;;;;;23.21;64.24;99102.44;5034195;28;20124;-67
2021/07/15 02:43:47;;;;;;;41.70;18.38;;;;;;;23.19;64.69;99103.75;5050706;28;20114;-67
2021/07/15 02:46:14;;;;;;;32.80;16.17;;;;;;;23.18;64.93;99105.66;5034235;28;20041;-67
2021/07/15 02:48:40;;;;;;;32.53;17.00;;;;;;;23.14;64.94;99101.78;5033820;28;20049;-67
2021/07/15 02:51:05;;;;;;;36.08;15.93;;;;;;;23.12;65.18;99095.00;5050393;28;20047;-67
2021/07/15 02:53:31;;;;;;;39.97;17.13;;;;;;;23.20;65.20;99102.69;5051464;28;20127;-67
2021/07/15 02:56:23;;;;;;;49.10;17.92;;;;;;;23.27;65.00;99117.72;5051738;28;20102;-67
2021/07/15 02:59:03;;;;;;;39.50;18.10;;;;;;;23.24;65.24;99117.38;5050416;28;20048;-67
2021/07/15 03:01:32;;;;;;;39.80;18.77;;;;;;;23.15;65.23;99089.91;5050108;28;20084;-67
2021/07/15 03:04:03;;;;;;;36.00;18.13;;;;;;;23.12;65.89;99103.13;5050449;28;20037;-67
2021/07/15 03:06:38;;;;;;;43.78;18.48;;;;;;;23.13;66.06;99110.19;5049977;28;20052;-68
2021/07/15 03:09:09;;;;;;;43.60;17.88;;;;;;;23.18;66.25;99100.25;5050138;28;20123;-67
2021/07/15 03:11:41;;;;;;;44.10;18.42;;;;;;;23.27;65.59;99109.59;5050167;28;20037;-67
2021/07/15 03:14:08;;;;;;;42.58;19.98;;;;;;;23.34;65.36;99108.56;5051173;28;20087;-67
2021/07/15 03:16:37;;;;;;;44.58;20.90;;;;;;;23.27;65.59;99106.06;5049666;28;20045;-67
2021/07/15 03:19:04;;;;;;;45.40;21.15;;;;;;;23.17;65.61;99087.75;5049956;28;20554;-67
2021/07/15 03:21:31;;;;;;;51.80;20.08;;;;;;;23.29;65.25;99107.44;5050022;28;20033;-68
2021/07/15 03:23:58;;;;;;;54.70;21.90;;;;;;;23.40;65.22;99105.69;5049998;28;20051;-68
2021/07/15 03:26:24;;;;;;;41.92;19.45;;;;;;;23.52;64.79;99116.38;5050669;28;20049;-68
2021/07/15 03:28:51;;;;;;;40.53;19.48;;;;;;;23.62;64.61;99113.78;5033494;28;20040;-67
2021/07/15 03:31:17;;;;;;;47.03;19.27;;;;;;;23.74;64.30;99119.88;5033416;28;20485;-68
2021/07/15 03:33:44;;;;;;;38.45;18.20;;;;;;;23.83;64.12;99126.50;5049779;28;20051;-67
2021/07/15 03:36:10;;;;;;;39.17;19.27;;;;;;;23.92;64.00;99123.06;5050737;28;20417;-67
2021/07/15 03:38:40;;;;;;;43.20;19.17;;;;;;;23.97;63.70;99122.31;5049560;28;20567;-68
2021/07/15 03:41:07;;;;;;;39.28;20.38;;;;;;;23.90;63.54;99108.09;5049928;28;20131;-68
2021/07/15 03:43:34;;;;;;;37.28;18.77;;;;;;;24.07;63.50;99133.25;5049475;28;20421;-68
2021/07/15 03:46:00;;;;;;;38.45;18.70;;;;;;;24.12;63.04;99126.00;5033097;28;20051;-68
2021/07/15 03:48:27;;;;;;;33.08;17.77;;;;;;;24.09;63.32;99117.56;5050660;28;20456;-69
2021/07/15 03:51:01;;;;;;;30.05;17.63;;;;;;;24.24;62.57;99131.25;5049558;28;20045;-67
2021/07/15 03:53:27;;;;;;;29.58;17.45;;;;;;;24.35;62.61;99130.25;5049515;28;20055;-68
2021/07/15 03:55:53;;;;;;;30.23;16.13;;;;;;;24.41;62.48;99134.66;5049661;28;20033;-67
2021/07/15 03:58:19;;;;;;;33.58;17.48;;;;;;;24.45;62.02;99135.75;5049411;28;20063;-68
2021/07/15 04:00:46;;;;;;;35.25;18.63;;;;;;;24.52;62.57;99130.94;5033141;28;20431;-67
2021/07/15 04:03:18;;;;;;;29.70;18.00;;;;;;;24.55;62.60;99127.72;5049388;28;20037;-68
2021/07/15 04:05:44;;;;;;;33.58;18.08;;;;;;;24.57;62.51;99125.56;5049360;28;20048;-68
2021/07/15 04:08:10;;;;;;;30.67;19.15;;;;;;;24.68;62.63;99141.69;5032870;28;20409;-67
2021/07/15 04:10:38;;;;;;;36.38;18.58;;;;;;;24.67;62.41;99131.91;5032841;28;20052;-67
2021/07/15 04:13:04;;;;;;;35.20;17.00;;;;;;;24.64;62.61;99123.44;5032708;28;20090;-68
2021/07/15 04:16:09;;;;;;;38.95;18.25;;;;;;;24.72;62.30;99133.84;5049195;28;20044;-67
2021/07/15 04:18:37;;;;;;;32.47;17.65;;;;;;;24.72;62.13;99131.13;5031083;28;20044;-67
2021/07/15 04:21:03;;;;;;;31.65;18.17;;;;;;;24.70;62.45;99125.97;5050448;28;20041;-67
2021/07/15 04:23:31;;;;;;;30.13;17.85;;;;;;;24.61;62.42;99116.63;5050145;28;20101;-68
2021/07/15 04:25:57;;;;;;;30.35;18.25;;;;;;;24.75;62.23;99133.31;5032485;28;20060;-69
2021/07/15 04:28:22;;;;;;;33.90;18.02;;;;;;;24.77;62.35;99126.53;5049420;28;20044;-68
2021/07/15 04:30:54;;;;;;;31.83;18.75;;;;;;;24.84;62.29;99120.88;5032457;28;20186;-68
2021/07/15 04:33:20;;;;;;;34.00;18.30;;;;;;;24.92;62.20;99116.84;5016194;28;20584;-68
2021/07/15 04:35:46;;;;;;;29.75;17.98;;;;;;;24.99;62.02;99117.44;5032776;28;20037;-68
2021/07/15 04:38:12;;;;;;;30.45;17.85;;;;;;;25.04;61.83;99110.13;5049055;28;20048;-68
2021/07/15 04:40:37;;;;;;;34.60;17.40;;;;;;;25.12;60.93;99100.66;5050110;28;20050;-68
2021/07/15 04:43:06;;;;;;;29.15;15.98;;;;;;;25.22;60.11;99115.09;5032698;28;20041;-68
2021/07/15 04:45:36;;;;;;;26.67;15.80;;;;;;;25.22;59.58;99106.94;5048917;28;20055;-68
2021/07/15 04:48:02;;;;;;;26.92;16.20;;;;;;;25.41;59.02;99115.47;5050310;28;20036;-67
2021/07/15 04:50:32;;;;;;;28.92;15.38;;;;;;;25.49;58.95;99118.53;5050239;28;20041;-69
2021/07/15 04:53:04;;;;;;;25.98;15.52;;;;;;;25.59;58.65;99115.81;5049155;28;20041;-68
2021/07/15 04:55:30;;;;;;;20.83;14.63;;;;;;;25.68;58.18;99111.50;5048906;28;20124;-68
2021/07/15 04:57:57;;;;;;;27.20;14.70;;;;;;;25.77;57.66;99109.88;5049534;28;20068;-68
2021/07/15 05:00:24;;;;;;;25.17;13.73;;;;;;;25.88;57.12;99108.81;5048846;28;20444;-68
2021/07/15 05:02:55;;;;;;;26.38;12.43;;;;;;;25.94;56.77;99104.22;5048966;28;20041;-68
2021/07/15 05:05:20;;;;;;;23.20;14.27;;;;;;;26.00;56.58;99106.69;5052591;28;20612;-67
2021/07/15 05:07:46;;;;;;;24.40;13.05;;;;;;;26.07;56.00;99099.09;5052616;28;20124;-67
2021/07/15 05:10:12;;;;;;;26.77;13.55;;;;;;;26.05;56.24;99074.03;5019306;28;20389;-67
2021/07/15 05:12:38;;;;;;;24.45;13.15;;;;;;;26.24;55.92;99088.75;5035686;28;20048;-68
2021/07/15 05:15:10;;;;;;;26.23;13.80;;;;;;;26.27;55.88;99085.50;5052479;28;20040;-68
2021/07/15 05:17:37;;;;;;;18.77;12.27;;;;;;;26.42;55.44;99092.81;5052348;28;20099;-67
2021/07/15 05:20:05;;;;;;;19.42;12.55;;;;;;;26.52;55.00;99093.63;5052241;28;20037;-68
2021/07/15 05:22:31;;;;;;;22.27;12.02;;;;;;;26.61;54.77;99091.16;5053303;28;20045;-68
2021/07/15 05:24:57;;;;;;;21.23;11.48;;;;;;;26.70;54.33;99091.44;5019376;28;20055;-67
2021/07/15 05:27:22;;;;;;;18.63;11.93;;;;;;;26.76;54.12;99083.00;5035462;28;20386;-67
2021/07/15 05:29:48;;;;;;;27.05;12.55;;;;;;;26.85;53.61;99089.50;5051899;28;20539;-67
2021/07/15 05:32:14;;;;;;;31.70;12.57;;;;;;;26.92;53.32;99097.41;5035425;28;20048;-67
2021/07/15 05:34:40;;;;;;;31.15;12.60;;;;;;;26.87;53.19;99078.34;5051985;28;20107;-67
2021/07/15 05:37:06;;;;;;;25.20;12.52;;;;;;;27.08;53.16;99094.34;5035527;28;20507;-67
2021/07/15 05:39:32;;;;;;;25.30;12.32;;;;;;;27.18;52.55;99083.41;5053095;28;20455;-68
2021/07/15 05:41:58;;;;;;;32.13;13.27;;;;;;;27.31;52.07;99095.66;5051913;28;20032;-67
2021/07/15 05:44:24;;;;;;;28.88;12.93;;;;;;;27.38;52.29;99086.09;5019125;28;20140;-67
2021/07/15 05:46:49;;;;;;;28.13;12.13;;;;;;;27.42;52.14;99078.97;5052974;28;20037;-67
2021/07/15 05:49:15;;;;;;;27.27;12.95;;;;;;;27.61;51.78;99090.06;5051634;28;20135;-67
2021/07/15 05:51:46;;;;;;;28.85;12.18;;;;;;;27.69;51.37;99095.72;5052739;28;20045;-68
2021/07/15 05:54:16;;;;;;;34.47;13.43;;;;;;;27.80;51.12;99100.03;5052986;28;20095;-68
2021/07/15 05:56:42;;;;;;;31.23;13.52;;;;;;;27.87;50.56;99086.94;5052743;28;20127;-68
2021/07/15 05:59:07;;;;;;;36.88;14.00;;;;;;;28.03;50.21;99096.63;5051491;28;20045;-68
2021/07/15 06:01:34;;;;;;;35.25;13.23;;;;;;;28.16;49.93;99089.72;5051369;28;20412;-68
2021/07/15 06:03:59;;;;;;;42.30;14.63;;;;;;;28.27;49.66;99095.91;5051449;28;20044;-68
2021/07/15 06:06:25;;;;;;;40.05;15.05;;;;;;;28.41;49.38;99092.25;5051159;28;20523;-67
2021/07/15 06:08:52;;;;;;;36.40;15.75;;;;;;;28.42;49.25;99069.28;5051153;28;20106;-67
2021/07/15 06:11:18;;;;;;;37.65;14.85;;;;;;;28.59;48.97;99079.78;5052365;28;20079;-68
2021/07/15 06:13:44;;;;;;;36.28;15.80;;;;;;;28.64;48.69;99069.66;5050546;28;20068;-68
2021/07/15 06:16:09;;;;;;;34.70;15.50;;;;;;;28.80;48.34;99083.97;5051097;28;20045;-68
2021/07/15 06:18:35;;;;;;;41.47;16.08;;;;;;;28.90;48.16;99079.22;5052223;28;20049;-68
2021/07/15 06:21:01;;;;;;;31.88;16.30;;;;;;;29.01;47.98;99072.53;5052417;28;20540;-67
2021/07/15 06:23:27;;;;;;;38.97;16.58;;;;;;;29.13;47.78;99074.88;5034505;28;20421;-67
2021/07/15 06:25:52;;;;;;;45.13;16.30;;;;;;;29.26;47.81;99071.44;5034024;28;20263;-68
2021/07/15 06:28:18;;;;;;;37.63;16.50;;;;;;;29.38;46.89;99075.34;5050917;28;20047;-67
2021/07/15 06:30:44;;;;;;;39.58;15.77;;;;;;;29.50;46.53;99074.94;5050841;28;20081;-67
2021/07/15 06:33:09;;;;;;;31.38;15.68;;;;;;;29.61;46.01;99065.50;5050815;28;20041;-67
2021/07/15 06:35:40;;;;;;;33.13;15.32;;;;;;;29.77;45.57;99077.84;5050672;28;20524;-68
2021/07/15 06:38:07;;;;;;;29.15;15.65;;;;;;;29.89;45.14;99061.00;5034208;28;20046;-68
2021/07/15 06:40:33;;;;;;;32.17;15.25;;;;;;;30.03;44.41;99067.34;5050886;28;20051;-68
2021/07/15 06:42:58;;;;;;;30.67;13.55;;;;;;;30.14;44.21;99061.41;5051948;28;20037;-68
2021/07/15 06:45:24;;;;;;;33.65;14.30;;;;;;;30.24;43.98;99060.47;5034162;28;20398;-68
2021/07/15 06:47:50;;;;;;;26.92;12.57;;;;;;;30.28;43.65;99050.50;5034007;28;20047;-68
2021/07/15 06:50:18;;;;;;;38.33;13.05;;;;;;;30.42;43.45;99065.06;5051609;28;20123;-68
2021/07/15 06:52:44;;;;;;;32.47;12.23;;;;;;;30.47;42.71;99068.56;5034070;28;20036;-68
2021/07/15 06:55:10;;;;;;;38.95;15.10;;;;;;;30.49;43.16;99065.50;5051752;28;20101;-68
2021/07/15 06:57:36;;;;;;;33.00;12.52;;;;;;;30.63;43.32;99063.63;5050209;28;20469;-67
2021/07/15 07:00:11;;;;;;;32.25;11.95;;;;;;;30.75;42.15;99051.03;5051775;28;20072;-67
2021/07/15 07:02:41;;;;;;;23.40;11.70;;;;;;;31.06;41.52;99056.78;5050668;28;20056;-68
2021/07/15 07:05:07;;;;;;;31.80;12.40;;;;;;;31.28;41.13;99062.31;5050202;28;20047;-69
2021/07/15 07:07:33;;;;;;;26.73;11.63;;;;;;;31.49;40.67;99060.78;5050284;28;20072;-68
2021/07/15 07:09:59;;;;;;;24.33;10.27;;;;;;;31.75;40.06;99058.31;5051346;28;20462;-68
2021/07/15 07:12:24;;;;;;;20.00;9.85;;;;;;;31.96;39.50;99057.56;5051552;28;20045;-69
2021/07/15 07:14:50;;;;;;;20.70;10.05;;;;;;;32.17;39.52;99060.59;5016854;28;20069;-69
2021/07/15 07:17:17;;;;;;;19.90;8.70;;;;;;;32.43;38.72;99062.44;5033534;28;20040;-67
2021/07/15 07:19:42;;;;;;;26.65;9.65;;;;;;;32.50;38.11;99057.31;5049961;28;20049;-67
2021/07/15 07:22:08;;;;;;;18.85;8.43;;;;;;;32.67;37.80;99049.13;5051500;28;20406;-68
2021/07/15 07:24:34;;;;;;;12.52;7.90;;;;;;;32.96;37.59;99051.41;5033343;28;20055;-67
2021/07/15 07:27:00;;;;;;;15.48;8.70;;;;;;;33.48;36.71;99066.97;5049158;28;20467;-67
2021/07/15 07:29:25;;;;;;;26.33;9.13;;;;;;;34.08;35.71;99056.00;5051050;28;20088;-68
2021/07/15 07:31:51;;;;;;;17.30;8.23;;;;;;;34.82;34.05;99056.50;5049890;28;20049;-67
2021/07/15 07:34:17;;;;;;;13.73;7.53;;;;;;;35.49;32.65;99046.34;5049942;28;20037;-68
2021/07/15 07:36:43;;;;;;;18.75;7.30;;;;;;;36.47;30.41;99057.56;5049597;28;20045;-69
2021/07/15 07:39:09;;;;;;;21.00;6.28;;;;;;;37.53;28.56;99062.78;5049730;28;20070;-68
2021/07/15 07:41:35;;;;;;;15.73;6.43;;;;;;;38.81;26.30;99057.00;5033660;28;20708;-68
2021/07/15 07:44:01;;;;;;;19.45;6.30;;;;;;;39.45;24.02;99049.91;5049603;28;20094;-68
2021/07/15 07:46:27;;;;;;;12.93;5.40;;;;;;;40.03;23.36;99053.59;5049563;28;20052;-68
2021/07/15 07:48:53;;;;;;;18.08;5.25;;;;;;;41.58;21.56;99046.91;5050928;28;20128;-68
2021/07/15 07:51:18;;;;;;;15.82;5.10;;;;;;;43.35;19.66;99030.91;5033204;28;20456;-70
2021/07/15 07:53:45;;;;;;;14.20;5.22;;;;;;;45.10;17.75;99041.19;5049482;28;20045;-69
2021/07/15 07:56:11;;;;;;;10.52;4.97;;;;;;;46.60;16.54;99047.56;5049556;28;20072;-69
2021/07/15 07:58:37;;;;;;;11.65;4.65;;;;;;;48.03;14.76;99044.66;5049752;28;20045;-68
2021/07/15 08:01:03;;;;;;;19.70;5.00;;;;;;;49.20;13.32;99044.53;5033263;28;20060;-68
2021/07/15 08:03:30;;;;;;;9.05;3.85;;;;;;;50.02;12.56;99046.25;5016390;28;20132;-69
2021/07/15 08:05:56;;;;;;;12.80;4.30;;;;;;;49.67;12.45;99034.84;5050566;28;20049;-68
2021/07/15 08:08:22;;;;;;;11.57;4.20;;;;;;;48.84;13.38;99019.72;5032853;28;20044;-69
2021/07/15 08:10:49;;;;;;;11.35;4.20;;;;;;;48.89;13.09;99024.91;5049167;28;20120;-69
2021/07/15 08:13:15;;;;;;;10.70;4.13;;;;;;;48.58;13.41;99022.56;5032910;28;20144;-69
2021/07/15 08:15:41;;;;;;;12.70;4.90;;;;;;;48.25;13.53;99027.06;5049332;28;20130;-70
2021/07/15 08:18:08;;;;;;;10.50;4.63;;;;;;;47.24;14.35;99018.53;5016522;28;20115;-69
2021/07/15 08:20:33;;;;;;;17.13;5.05;;;;;;;47.17;14.23;99027.03;5049253;28;20052;-69
2021/07/15 08:22:59;;;;;;;13.90;4.90;;;;;;;46.89;14.83;99001.97;5032697;28;20450;-69
2021/07/15 08:25:26;;;;;;;14.02;5.05;;;;;;;48.33;13.38;99013.69;5050493;28;20053;-69
2021/07/15 08:27:51;;;;;;;12.80;5.07;;;;;;;49.55;12.63;99013.66;5050309;28;20052;-69
2021/07/15 08:30:19;;;;;;;16.38;4.45;;;;;;;50.79;11.95;99006.13;5049232;28;20052;-69
2021/07/15 08:32:44;;;;;;;17.17;4.28;;;;;;;51.35;11.14;99021.66;5049370;28;20049;-68
2021/07/15 08:35:10;;;;;;;12.35;4.20;;;;;;;50.98;10.90;99008.09;5032731;28;20048;-69
2021/07/15 08:37:36;;;;;;;10.68;3.70;;;;;;;51.06;11.13;99001.81;5052836;28;20407;-68
2021/07/15 08:40:04;;;;;;;15.68;4.07;;;;;;;51.90;10.62;99007.97;5054291;28;20052;-69
2021/07/15 08:42:30;;;;;;;11.82;3.60;;;;;;;51.86;10.33;99009.31;5052872;28;20044;-69
2021/07/15 08:45:00;;;;;;;15.55;3.90;;;;;;;50.89;10.51;99003.03;5052783;28;20045;-68
2021/07/15 08:47:27;;;;;;;11.23;3.80;;;;;;;50.42;11.10;98994.06;5052830;28;20056;-69
2021/07/15 08:49:52;;;;;;;7.20;3.35;;;;;;;50.08;11.56;98990.00;5052919;28;20048;-68
2021/07/15 08:52:18;;;;;;;6.32;3.30;;;;;;;50.09;10.66;98997.25;5036169;28;20178;-68
2021/07/15 08:55:05;;;;;;;10.98;3.80;;;;;;;49.64;11.40;98977.16;5035926;28;20044;-70
2021/07/15 08:57:30;;;;;;;14.98;3.53;;;;;;;50.04;11.29;98972.34;5052736;28;20165;-68
2021/07/15 08:59:56;;;;;;;12.05;3.65;;;;;;;50.87;10.85;98976.44;5053783;28;20135;-68
2021/07/15 09:02:23;;;;;;;9.93;3.35;;;;;;;52.36;9.66;98971.78;5053681;28;20378;-69
2021/07/15 09:04:49;;;;;;;7.88;3.35;;;;;;;53.79;8.98;98976.53;5052530;28;20041;-68
2021/07/15 09:07:15;;;;;;;11.13;3.58;;;;;;;54.72;8.44;98982.53;5053751;28;20041;-69
2021/07/15 09:09:45;;;;;;;12.02;3.03;;;;;;;55.18;7.61;98960.66;5052576;28;20052;-68
2021/07/15 09:12:12;;;;;;;9.40;2.80;;;;;;;55.73;7.17;98959.34;5052443;28;20036;-68
2021/07/15 09:14:52;;;;;;;9.15;2.85;;;;;;;56.29;6.66;98953.03;5053979;28;20079;-68
2021/07/15 09:17:27;;;;;;;6.85;2.65;;;;;;;56.80;6.36;98948.03;5053520;28;20049;-69
2021/07/15 09:19:52;;;;;;;5.30;2.35;;;;;;;57.07;6.12;98929.94;5052175;28;20501;-69
2021/07/15 09:22:18;;;;;;;8.10;2.60;;;;;;;57.35;5.86;98942.69;5053452;28;20170;-71
2021/07/15 09:24:46;;;;;;;10.07;2.95;;;;;;;57.58;5.94;98928.38;5035578;28;20049;-70
2021/07/15 09:27:21;;;;;;;11.00;2.90;;;;;;;57.42;5.98;98913.75;5053708;28;20107;-70
2021/07/15 09:30:08;;;;;;;10.55;2.97;;;;;;;57.52;6.03;98910.31;5051932;28;20053;-69
2021/07/15 09:32:39;;;;;;;7.90;2.70;;;;;;;57.49;5.96;98908.44;5053142;28;20044;-69
2021/07/15 09:35:06;;;;;;;12.02;2.97;;;;;;;57.58;5.72;98907.56;5035357;28;20053;-68
2021/07/15 09:37:36;;;;;;;8.27;2.70;;;;;;;57.97;5.56;98905.38;5053152;28;20523;-67
2021/07/15 09:40:03;;;;;;;7.05;2.60;;;;;;;58.40;5.15;98893.03;5051613;28;20075;-69
2021/07/15 09:42:29;;;;;;;7.60;2.65;;;;;;;58.89;5.23;98892.97;5051711;28;20172;-68
2021/07/15 09:44:55;;;;;;;10.65;2.45;;;;;;;59.40;4.81;98892.25;5051910;28;20075;-69
2021/07/15 09:47:44;;;;;;;11.95;2.70;;;;;;;59.93;4.92;98904.00;5052976;28;20124;-68
2021/07/15 09:50:15;;;;;;;10.48;2.70;;;;;;;59.59;4.93;98902.09;5052548;28;20040;-69
2021/07/15 09:52:44;;;;;;;9.80;2.95;;;;;;;59.70;4.59;98902.22;5051742;28;20508;-69
2021/07/15 09:55:34;;;;;;;5.30;2.30;;;;;;;59.08;4.79;98895.06;5053269;28;20048;-68
2021/07/15 09:58:02;;;;;;;10.18;2.53;;;;;;;58.27;5.02;98884.03;5052577;28;20033;-69
2021/07/15 10:00:34;;;;;;;11.48;2.60;;;;;;;57.36;5.42;98867.16;5052648;28;20045;-67
2021/07/15 10:03:00;;;;;;;11.13;2.60;;;;;;;56.75;6.08;98865.91;5052538;28;20040;-69
2021/07/15 10:05:26;;;;;;;8.38;2.60;;;;;;;55.22;6.68;98866.53;5052680;28;20049;-70
2021/07/15 10:08:10;;;;;;;5.22;2.60;;;;;;;52.64;8.24;98851.75;5051210;28;20045;-69
2021/07/15 10:10:38;;;;;;;8.85;2.80;;;;;;;49.94;9.97;98855.50;5052288;28;20051;-70
2021/07/15 10:13:17;;;;;;;12.73;3.20;;;;;;;47.49;12.08;98843.78;5051275;28;20102;-68
2021/07/15 10:15:45;;;;;;;9.20;3.83;;;;;;;45.75;13.78;98853.41;5052664;28;20045;-69
2021/07/15 10:18:11;;;;;;;9.55;3.60;;;;;;;44.35;15.00;98844.19;5052254;28;20543;-68
2021/07/15 10:20:37;;;;;;;8.95;3.88;;;;;;;43.14;16.20;98838.69;5052283;28;20048;-68
2021/07/15 10:23:03;;;;;;;10.85;3.90;;;;;;;42.17;17.39;98839.53;5052215;28;20052;-67
2021/07/15 10:25:29;;;;;;;7.10;3.75;;;;;;;41.24;18.37;98844.47;5051950;28;20512;-67
2021/07/15 10:27:55;;;;;;;10.48;4.30;;;;;;;40.55;19.67;98860.94;5050882;28;20049;-67
2021/07/15 10:30:21;;;;;;;15.50;4.95;;;;;;;39.24;21.27;98873.53;5050673;28;20040;-68
2021/07/15 10:32:47;;;;;;;30.73;5.53;;;;;;;38.17;24.35;98865.78;5051891;28;20037;-69
2021/07/15 10:35:13;;;;;;;42.35;5.25;;;;;;;36.73;25.95;98880.94;5052354;28;20127;-68
2021/07/15 10:37:47;;;;;;;33.67;4.78;;;;;;;35.77;27.83;98889.88;5052027;28;20045;-68
2021/07/15 10:40:16;;;;;;;32.30;4.30;;;;;;;35.06;28.26;98894.69;5034270;28;20052;-68
2021/07/15 10:42:42;;;;;;;26.75;4.25;;;;;;;34.48;28.92;98866.31;5050842;28;20497;-68
2021/07/15 10:45:10;;;;;;;23.08;3.78;;;;;;;34.28;29.32;98887.16;5051886;28;20041;-68
2021/07/15 10:47:37;;;;;;;17.60;3.50;;;;;;;33.82;30.34;98879.66;5051513;28;20041;-68
2021/07/15 10:50:05;;;;;;;17.70;3.33;;;;;;;33.33;31.07;98902.22;5051477;28;20075;-67
2021/07/15 10:52:32;;;;;;;17.60;3.33;;;;;;;32.91;32.13;98905.72;5051833;28;20044;-67
2021/07/15 10:54:58;;;;;;;24.42;3.40;;;;;;;32.40;32.78;98895.38;5050290;28;20195;-67
2021/07/15 10:57:24;;;;;;;14.70;3.30;;;;;;;32.06;33.73;98895.19;5051551;28;20048;-67
2021/07/15 10:59:50;;;;;;;14.20;3.50;;;;;;;31.74;34.55;98917.44;5050241;28;20505;-67
2021/07/15 11:02:26;;;;;;;10.43;3.25;;;;;;;31.42;34.86;98931.41;5051857;28;20040;-67
2021/07/15 11:04:53;;;;;;;14.63;3.45;;;;;;;30.85;35.23;98901.94;5050280;28;20520;-68
2021/07/15 11:07:34;;;;;;;11.65;3.17;;;;;;;30.43;35.00;98905.81;5050266;28;20049;-67
2021/07/15 11:10:15;;;;;;;7.82;3.05;;;;;;;30.05;35.79;98923.50;5051312;28;20052;-67
2021/07/15 11:13:08;;;;;;;9.30;3.25;;;;;;;29.69;36.30;98918.97;5050729;28;20045;-68
2021/07/15 11:15:46;;;;;;;13.05;3.50;;;;;;;29.48;37.30;98932.13;5049894;28;20045;-67
2021/07/15 11:19:01;;;;;;;4.95;2.80;;;;;;;29.12;37.92;98923.63;5049837;28;20083;-67
2021/07/15 11:21:24;;;;;;;16.20;3.67;;;;;;;28.81;38.97;98919.66;5050849;28;20056;-67
2021/07/15 11:23:50;;;;;;;13.15;3.05;;;;;;;28.69;39.51;98938.38;5051376;28;20052;-68
2021/07/15 11:26:27;;;;;;;10.43;3.70;;;;;;;28.60;40.05;98959.28;5049734;28;20053;-67
2021/07/15 11:28:53;;;;;;;15.48;3.58;;;;;;;28.23;40.58;98963.78;5051128;28;20509;-67